Time;durP1;ratioP1;P1;durP2;ratioP2;P2;SDS_P1;SDS_P2;PMS_P1;PMS_P2;Temp;Humidity;BMP_temperature;BMP_pressure;BME280_temperature;BME280_humidity;BME280_pressure;Samples;Min_cycle;Max_cycle;Signal;HPM_P1;HPM_P2
2021/08/21 00:02:01;;;;;;;8.88;5.25;;;;;;;;;;4347585;32;20093;-80
2021/08/21 00:04:28;;;;;;;7.12;4.75;;;;;;;;;;4359808;32;20162;-81
2021/08/21 00:06:54;;;;;;;14.00;5.57;;;;;;;;;;4359741;32;20074;-81
2021/08/21 00:09:21;;;;;;;8.20;4.70;;;;;;;;;;4360288;32;20094;-81
2021/08/21 00:11:47;;;;;;;9.80;4.75;;;;;;;;;;4359962;32;20077;-80
2021/08/21 00:14:14;;;;;;;9.32;5.45;;;;;;;;;;4347875;32;20460;-82
2021/08/21 00:16:40;;;;;;;8.85;5.00;;;;;;;;;;4347551;32;20158;-81
2021/08/21 00:19:07;;;;;;;10.02;5.57;;;;;;;;;;4359796;32;20066;-81
2021/08/21 00:21:34;;;;;;;9.18;4.90;;;;;;;;;;4359444;32;20067;-80
2021/08/21 00:24:00;;;;;;;9.93;4.90;;;;;;;;;;4349749;32;20167;-82
2021/08/21 00:26:27;;;;;;;9.95;5.37;;;;;;;;;;4350449;32;20078;-80
2021/08/21 00:28:53;;;;;;;10.18;4.97;;;;;;;;;;4349957;32;20067;-82
2021/08/21 00:31:20;;;;;;;9.27;4.87;;;;;;;;;;4350154;32;20081;-81
2021/08/21 00:33:47;;;;;;;12.25;4.82;;;;;;;;;;4350328;32;20082;-81
2021/08/21 00:36:13;;;;;;;10.07;4.97;;;;;;;;;;4361948;32;20158;-81
2021/08/21 00:38:40;;;;;;;9.15;5.18;;;;;;;;;;4362475;32;20509;-80
2021/08/21 00:41:07;;;;;;;10.88;5.25;;;;;;;;;;4349813;32;20089;-81
2021/08/21 00:43:36;;;;;;;13.23;5.45;;;;;;;;;;4350082;32;20101;-80
2021/08/21 00:46:03;;;;;;;10.32;5.12;;;;;;;;;;4350280;32;20178;-81
2021/08/21 00:48:29;;;;;;;9.48;4.95;;;;;;;;;;4362386;32;20146;-80
2021/08/21 00:51:00;;;;;;;8.95;4.95;;;;;;;;;;4350577;32;20092;-79
2021/08/21 00:53:30;;;;;;;11.82;5.32;;;;;;;;;;4338233;32;20508;-81
2021/08/21 00:55:56;;;;;;;9.38;5.55;;;;;;;;;;4349276;32;20513;-82
2021/08/21 00:58:23;;;;;;;17.65;5.53;;;;;;;;;;4350069;32;20515;-82
2021/08/21 01:00:53;;;;;;;13.18;5.05;;;;;;;;;;4349904;32;20086;-82
2021/08/21 01:03:20;;;;;;;10.63;5.65;;;;;;;;;;4362076;32;20106;-80
2021/08/21 01:05:47;;;;;;;8.73;5.37;;;;;;;;;;4362003;32;20469;-80
2021/08/21 01:08:14;;;;;;;9.32;4.97;;;;;;;;;;4362249;32;20485;-81
2021/08/21 01:10:41;;;;;;;10.32;5.62;;;;;;;;;;4362068;32;20152;-81
2021/08/21 01:13:07;;;;;;;10.45;5.00;;;;;;;;;;4349695;32;20082;-82
2021/08/21 01:15:34;;;;;;;9.93;4.78;;;;;;;;;;4349411;32;20090;-82
2021/08/21 01:18:01;;;;;;;9.07;5.22;;;;;;;;;;4350234;32;20098;-81
2021/08/21 01:20:29;;;;;;;10.23;4.78;;;;;;;;;;4362067;32;20067;-81
2021/08/21 01:22:56;;;;;;;11.63;5.30;;;;;;;;;;4361892;32;20110;-81
2021/08/21 01:25:26;;;;;;;9.52;5.20;;;;;;;;;;4361282;32;20527;-81
2021/08/21 01:27:53;;;;;;;11.90;5.65;;;;;;;;;;4361691;32;20171;-81
2021/08/21 01:30:19;;;;;;;8.15;5.07;;;;;;;;;;4361730;32;20093;-81
2021/08/21 01:32:46;;;;;;;9.45;5.35;;;;;;;;;;4348981;32;20480;-80
2021/08/21 01:35:12;;;;;;;11.30;5.28;;;;;;;;;;4349063;32;20086;-80
2021/08/21 01:37:39;;;;;;;11.23;5.80;;;;;;;;;;4361577;32;20493;-79
2021/08/21 01:40:06;;;;;;;10.48;5.62;;;;;;;;;;4349406;32;20089;-81
2021/08/21 01:42:32;;;;;;;11.20;5.82;;;;;;;;;;4361228;32;20568;-82
2021/08/21 01:44:59;;;;;;;9.20;5.10;;;;;;;;;;4348741;32;20513;-79
2021/08/21 01:47:25;;;;;;;8.45;5.40;;;;;;;;;;4361653;32;20175;-80
2021/08/21 01:49:57;;;;;;;9.48;5.43;;;;;;;;;;4348597;32;20481;-80
2021/08/21 01:52:24;;;;;;;9.77;5.43;;;;;;;;;;4348845;32;20074;-81
2021/08/21 01:54:51;;;;;;;10.57;5.80;;;;;;;;;;4361303;32;20159;-81
2021/08/21 01:57:18;;;;;;;10.73;5.25;;;;;;;;;;4361143;32;20075;-80
2021/08/21 01:59:46;;;;;;;9.93;5.43;;;;;;;;;;4348597;32;20517;-81
2021/08/21 02:02:21;;;;;;;12.98;5.62;;;;;;;;;;4361049;32;20091;-81
2021/08/21 02:04:47;;;;;;;8.57;5.15;;;;;;;;;;4361160;32;20078;-80
2021/08/21 02:07:14;;;;;;;9.82;5.10;;;;;;;;;;4348709;32;20072;-81
2021/08/21 02:09:40;;;;;;;9.27;5.60;;;;;;;;;;4360701;32;20078;-77
2021/08/21 02:12:08;;;;;;;9.55;5.18;;;;;;;;;;4361619;32;20078;-80
2021/08/21 02:14:34;;;;;;;10.20;5.40;;;;;;;;;;4361241;32;20080;-80
2021/08/21 02:17:02;;;;;;;7.85;5.05;;;;;;;;;;4360928;32;20081;-80
2021/08/21 02:19:28;;;;;;;11.30;4.95;;;;;;;;;;4361104;32;20073;-80
2021/08/21 02:21:56;;;;;;;10.60;5.25;;;;;;;;;;4348830;32;20074;-80
2021/08/21 02:24:26;;;;;;;7.90;5.20;;;;;;;;;;4360566;32;20071;-81
2021/08/21 02:26:54;;;;;;;10.00;4.65;;;;;;;;;;4348533;32;20549;-81
2021/08/21 02:29:20;;;;;;;12.70;5.70;;;;;;;;;;4361018;32;20081;-80
2021/08/21 02:31:47;;;;;;;12.30;5.18;;;;;;;;;;4360553;32;20059;-79
2021/08/21 02:34:13;;;;;;;8.55;5.22;;;;;;;;;;4348185;32;20086;-81
2021/08/21 02:36:41;;;;;;;8.52;5.55;;;;;;;;;;4348045;32;20159;-80
2021/08/21 02:39:07;;;;;;;11.90;5.53;;;;;;;;;;4360284;32;20062;-82
2021/08/21 02:41:34;;;;;;;10.07;5.43;;;;;;;;;;4348048;32;20521;-82
2021/08/21 02:44:00;;;;;;;10.68;5.62;;;;;;;;;;4348044;32;20066;-81
2021/08/21 02:46:27;;;;;;;9.77;5.45;;;;;;;;;;4347999;32;20147;-81
2021/08/21 02:48:53;;;;;;;8.98;5.50;;;;;;;;;;4348617;32;20094;-80
2021/08/21 02:51:20;;;;;;;10.40;5.43;;;;;;;;;;4360754;32;20522;-79
2021/08/21 02:53:47;;;;;;;9.55;5.32;;;;;;;;;;4347945;32;20102;-81
2021/08/21 02:56:13;;;;;;;9.20;5.30;;;;;;;;;;4360409;32;20073;-81
2021/08/21 02:58:40;;;;;;;10.00;5.07;;;;;;;;;;4348016;32;20089;-81
2021/08/21 03:01:06;;;;;;;10.20;5.70;;;;;;;;;;4360050;32;20077;-81
2021/08/21 03:03:33;;;;;;;11.05;5.45;;;;;;;;;;4347859;32;20523;-82
2021/08/21 03:05:59;;;;;;;10.35;5.43;;;;;;;;;;4347776;32;20130;-82
2021/08/21 03:08:26;;;;;;;8.85;4.93;;;;;;;;;;4347965;32;20087;-81
2021/08/21 03:10:52;;;;;;;10.65;5.15;;;;;;;;;;4348179;32;20180;-81
2021/08/21 03:13:19;;;;;;;10.15;5.60;;;;;;;;;;4360773;32;20072;-80
2021/08/21 03:15:45;;;;;;;7.57;5.18;;;;;;;;;;4360146;32;20165;-79
2021/08/21 03:18:12;;;;;;;11.52;4.95;;;;;;;;;;4359927;32;20190;-80
2021/08/21 03:20:39;;;;;;;9.88;4.95;;;;;;;;;;4360309;32;20070;-81
2021/08/21 03:23:05;;;;;;;11.55;5.75;;;;;;;;;;4360177;32;20120;-81
2021/08/21 03:25:32;;;;;;;9.60;5.82;;;;;;;;;;4348069;32;20186;-82
2021/08/21 03:27:58;;;;;;;9.57;5.45;;;;;;;;;;4347747;32;20085;-82
2021/08/21 03:30:25;;;;;;;7.80;4.55;;;;;;;;;;4347883;32;20519;-80
2021/08/21 03:32:52;;;;;;;9.45;5.32;;;;;;;;;;4347487;32;20445;-81
2021/08/21 03:35:18;;;;;;;12.15;5.18;;;;;;;;;;4359466;32;20082;-81
2021/08/21 03:37:45;;;;;;;9.77;5.90;;;;;;;;;;4347352;32;20159;-80
2021/08/21 03:40:11;;;;;;;10.10;5.72;;;;;;;;;;4347674;32;20074;-81
2021/08/21 03:42:38;;;;;;;12.77;5.60;;;;;;;;;;4347706;32;20083;-81
2021/08/21 03:45:05;;;;;;;10.30;5.78;;;;;;;;;;4347797;32;20179;-81
2021/08/21 03:47:32;;;;;;;9.35;5.40;;;;;;;;;;4347771;32;20097;-80
2021/08/21 03:49:58;;;;;;;10.23;5.43;;;;;;;;;;4347411;32;20070;-81
2021/08/21 03:52:25;;;;;;;11.32;5.80;;;;;;;;;;4360034;32;20069;-80
2021/08/21 03:54:51;;;;;;;10.10;5.43;;;;;;;;;;4347137;32;20537;-82
2021/08/21 03:57:18;;;;;;;10.23;5.55;;;;;;;;;;4359662;32;20165;-82
2021/08/21 03:59:44;;;;;;;9.38;5.12;;;;;;;;;;4350515;32;20079;-82
2021/08/21 04:02:11;;;;;;;9.98;5.37;;;;;;;;;;4350447;32;20137;-82
2021/08/21 04:04:38;;;;;;;12.02;5.72;;;;;;;;;;4362982;32;20102;-83
2021/08/21 04:07:04;;;;;;;14.23;6.18;;;;;;;;;;4350413;32;20078;-83
2021/08/21 04:09:31;;;;;;;12.63;5.93;;;;;;;;;;4350394;32;20074;-80
2021/08/21 04:11:57;;;;;;;11.00;5.47;;;;;;;;;;4362515;32;20081;-80
2021/08/21 04:14:24;;;;;;;12.30;5.50;;;;;;;;;;4362974;32;20081;-82
2021/08/21 04:16:50;;;;;;;11.43;5.50;;;;;;;;;;4349986;32;20292;-82
2021/08/21 04:19:17;;;;;;;11.48;5.65;;;;;;;;;;4338001;32;20094;-82
2021/08/21 04:21:44;;;;;;;11.50;5.78;;;;;;;;;;4363110;32;20092;-81
2021/08/21 04:24:10;;;;;;;10.68;5.78;;;;;;;;;;4350016;32;20091;-82
2021/08/21 04:26:37;;;;;;;7.45;5.37;;;;;;;;;;4350277;32;20143;-81
2021/08/21 04:29:03;;;;;;;9.55;5.05;;;;;;;;;;4362610;32;20090;-82
2021/08/21 04:31:30;;;;;;;12.00;5.55;;;;;;;;;;4362648;32;20497;-81
2021/08/21 04:33:56;;;;;;;11.80;5.78;;;;;;;;;;4350157;32;20082;-82
2021/08/21 04:36:23;;;;;;;12.00;5.80;;;;;;;;;;4349649;32;20522;-82
2021/08/21 04:38:49;;;;;;;9.63;5.78;;;;;;;;;;4362484;32;20143;-81
2021/08/21 04:41:16;;;;;;;12.10;5.60;;;;;;;;;;4350018;32;20500;-81
2021/08/21 04:43:43;;;;;;;8.70;5.37;;;;;;;;;;4362213;32;20078;-80
2021/08/21 04:46:10;;;;;;;10.43;5.90;;;;;;;;;;4349672;32;20494;-80
2021/08/21 04:48:36;;;;;;;10.63;5.75;;;;;;;;;;4362151;32;20071;-80
2021/08/21 04:51:02;;;;;;;9.55;5.68;;;;;;;;;;4349681;32;20529;-81
2021/08/21 04:53:29;;;;;;;9.32;5.78;;;;;;;;;;4362031;32;20082;-81
2021/08/21 04:55:56;;;;;;;10.63;5.80;;;;;;;;;;4349873;32;20085;-82
2021/08/21 04:58:22;;;;;;;8.75;5.93;;;;;;;;;;4349873;32;20074;-83
2021/08/21 05:00:49;;;;;;;12.02;5.43;;;;;;;;;;4361720;32;20149;-81
2021/08/21 05:03:15;;;;;;;13.85;6.37;;;;;;;;;;4362212;32;20090;-81
2021/08/21 05:05:44;;;;;;;9.25;4.87;;;;;;;;;;4349885;32;20089;-81
2021/08/21 05:08:10;;;;;;;10.32;5.55;;;;;;;;;;4349754;32;20104;-82
2021/08/21 05:10:37;;;;;;;11.15;6.18;;;;;;;;;;4362176;32;20058;-82
2021/08/21 05:13:03;;;;;;;11.30;5.70;;;;;;;;;;4361736;32;20081;-81
2021/08/21 05:15:33;;;;;;;9.93;5.50;;;;;;;;;;4349805;32;20082;-81
2021/08/21 05:18:02;;;;;;;10.25;6.10;;;;;;;;;;4361879;32;20153;-82
2021/08/21 05:20:30;;;;;;;13.52;6.62;;;;;;;;;;4349378;32;20082;-81
2021/08/21 05:23:08;;;;;;;11.80;5.30;;;;;;;;;;4361529;32;20102;-82
2021/08/21 05:25:46;;;;;;;9.80;5.47;;;;;;;;;;4349499;32;20449;-80
2021/08/21 05:28:13;;;;;;;9.23;5.18;;;;;;;;;;4349249;32;20091;-81
2021/08/21 05:30:40;;;;;;;10.70;6.03;;;;;;;;;;4361864;32;20064;-83
2021/08/21 05:33:13;;;;;;;11.95;5.97;;;;;;;;;;4349027;32;20138;-74
2021/08/21 05:35:40;;;;;;;11.02;5.85;;;;;;;;;;4361202;32;20066;-74
2021/08/21 05:38:06;;;;;;;13.43;5.25;;;;;;;;;;4363741;32;20480;-74
2021/08/21 05:40:33;;;;;;;9.60;5.57;;;;;;;;;;4378232;32;20104;-75
2021/08/21 05:43:00;;;;;;;10.68;6.28;;;;;;;;;;4351489;32;20085;-73
2021/08/21 05:45:27;;;;;;;12.65;6.53;;;;;;;;;;4363804;32;20598;-74
2021/08/21 05:47:53;;;;;;;13.75;5.97;;;;;;;;;;4364034;32;20088;-73
2021/08/21 05:50:21;;;;;;;8.63;5.55;;;;;;;;;;4351558;32;20080;-74
2021/08/21 05:52:48;;;;;;;11.38;5.95;;;;;;;;;;4364118;32;20070;-73
2021/08/21 05:55:15;;;;;;;14.38;6.18;;;;;;;;;;4351427;32;20093;-74
2021/08/21 05:57:41;;;;;;;12.73;5.47;;;;;;;;;;4351351;32;20081;-73
2021/08/21 06:00:09;;;;;;;11.12;5.78;;;;;;;;;;4338874;32;20101;-74
2021/08/21 06:02:35;;;;;;;11.43;5.45;;;;;;;;;;4351248;32;20075;-73
2021/08/21 06:05:02;;;;;;;10.27;5.75;;;;;;;;;;4363298;32;20096;-75
2021/08/21 06:07:30;;;;;;;14.68;5.95;;;;;;;;;;4350885;32;20505;-75
2021/08/21 06:09:56;;;;;;;11.85;5.55;;;;;;;;;;4363912;32;20143;-75
2021/08/21 06:12:23;;;;;;;12.02;5.97;;;;;;;;;;4351194;32;20102;-73
2021/08/21 06:14:50;;;;;;;11.85;5.37;;;;;;;;;;4351289;32;20189;-72
2021/08/21 06:17:16;;;;;;;11.48;5.90;;;;;;;;;;4363390;32;20504;-72
2021/08/21 06:19:43;;;;;;;9.63;5.53;;;;;;;;;;4362959;32;20072;-74
2021/08/21 06:22:09;;;;;;;8.45;4.95;;;;;;;;;;4362719;32;20505;-72
2021/08/21 06:24:36;;;;;;;10.55;4.78;;;;;;;;;;4362985;32;20101;-71
2021/08/21 06:27:03;;;;;;;10.10;5.30;;;;;;;;;;4376996;32;20097;-72
2021/08/21 06:29:34;;;;;;;13.50;5.87;;;;;;;;;;4363433;32;20096;-73
2021/08/21 06:32:02;;;;;;;11.07;6.22;;;;;;;;;;4363912;32;20093;-72
2021/08/21 06:34:29;;;;;;;12.20;5.95;;;;;;;;;;4363089;32;20497;-73
2021/08/21 06:37:00;;;;;;;11.27;6.07;;;;;;;;;;4350750;32;20149;-73
2021/08/21 06:39:26;;;;;;;11.10;6.65;;;;;;;;;;4350884;32;20084;-72
2021/08/21 06:41:53;;;;;;;9.23;6.25;;;;;;;;;;4363014;32;20074;-73
2021/08/21 06:44:19;;;;;;;13.62;6.47;;;;;;;;;;4362831;32;20515;-73
2021/08/21 06:46:46;;;;;;;11.07;5.82;;;;;;;;;;4362795;32;20078;-73
2021/08/21 06:49:12;;;;;;;11.70;5.80;;;;;;;;;;4362897;32;20104;-74
2021/08/21 06:51:39;;;;;;;11.35;5.57;;;;;;;;;;4350589;32;20592;-73
2021/08/21 06:54:06;;;;;;;14.52;6.75;;;;;;;;;;4376854;32;20157;-73
2021/08/21 06:56:32;;;;;;;10.50;5.90;;;;;;;;;;4362617;32;20532;-73
2021/08/21 06:58:59;;;;;;;11.05;6.30;;;;;;;;;;4362913;32;20090;-72
2021/08/21 07:01:27;;;;;;;15.77;6.45;;;;;;;;;;4362557;32;20511;-72
2021/08/21 07:03:54;;;;;;;12.30;6.03;;;;;;;;;;4350957;32;20074;-73
2021/08/21 07:06:20;;;;;;;14.87;6.55;;;;;;;;;;4362915;32;20074;-73
2021/08/21 07:08:47;;;;;;;13.65;5.90;;;;;;;;;;4362729;32;20615;-73
2021/08/21 07:11:13;;;;;;;11.12;6.37;;;;;;;;;;4350592;32;20098;-73
2021/08/21 07:13:39;;;;;;;14.13;6.43;;;;;;;;;;4350108;32;20103;-74
2021/08/21 07:16:06;;;;;;;10.40;6.80;;;;;;;;;;4362479;32;20453;-72
2021/08/21 07:18:32;;;;;;;15.32;7.22;;;;;;;;;;4362953;32;20171;-73
2021/08/21 07:20:59;;;;;;;10.00;6.45;;;;;;;;;;4362468;32;20084;-73
2021/08/21 07:23:25;;;;;;;14.15;7.18;;;;;;;;;;4350163;32;20094;-73
2021/08/21 07:25:52;;;;;;;12.52;6.85;;;;;;;;;;4350400;32;20077;-73
2021/08/21 07:28:18;;;;;;;11.82;6.55;;;;;;;;;;4362809;32;20175;-74
2021/08/21 07:30:45;;;;;;;11.07;6.78;;;;;;;;;;4350196;32;20089;-73
2021/08/21 07:33:11;;;;;;;15.95;7.00;;;;;;;;;;4362701;32;20149;-72
2021/08/21 07:35:38;;;;;;;13.65;6.47;;;;;;;;;;4349838;32;20132;-72
2021/08/21 07:38:05;;;;;;;11.30;6.00;;;;;;;;;;4350139;32;20097;-73
2021/08/21 07:40:34;;;;;;;10.93;6.50;;;;;;;;;;4362615;32;20469;-73
2021/08/21 07:43:01;;;;;;;17.42;6.97;;;;;;;;;;4362736;32;20501;-73
2021/08/21 07:45:27;;;;;;;14.85;7.18;;;;;;;;;;4362545;32;20085;-73
2021/08/21 07:47:54;;;;;;;10.15;6.43;;;;;;;;;;4362316;32;20097;-73
2021/08/21 07:50:20;;;;;;;13.75;7.57;;;;;;;;;;4350521;32;20164;-74
2021/08/21 07:52:47;;;;;;;18.12;7.30;;;;;;;;;;4362331;32;20457;-73
2021/08/21 07:55:14;;;;;;;10.82;6.85;;;;;;;;;;4349999;32;20082;-73
2021/08/21 07:57:40;;;;;;;16.40;6.55;;;;;;;;;;4361967;32;20081;-73
2021/08/21 08:00:09;;;;;;;14.77;7.82;;;;;;;;;;4362666;32;20584;-73
2021/08/21 08:02:35;;;;;;;11.02;6.25;;;;;;;;;;4350013;32;20082;-73
2021/08/21 08:05:02;;;;;;;13.88;6.72;;;;;;;;;;4349864;32;20162;-74
2021/08/21 08:07:28;;;;;;;11.90;6.05;;;;;;;;;;4362911;32;20073;-73
2021/08/21 08:09:55;;;;;;;10.52;6.10;;;;;;;;;;4362433;32;20208;-74
2021/08/21 08:12:21;;;;;;;12.18;6.65;;;;;;;;;;4362180;32;20512;-73
2021/08/21 08:14:48;;;;;;;9.52;5.57;;;;;;;;;;4337870;32;20070;-73
2021/08/21 08:17:14;;;;;;;11.05;5.95;;;;;;;;;;4349752;32;20088;-73
2021/08/21 08:19:41;;;;;;;12.23;5.70;;;;;;;;;;4362090;32;20077;-72
2021/08/21 08:22:07;;;;;;;9.07;5.45;;;;;;;;;;4349870;32;20065;-73
2021/08/21 08:24:34;;;;;;;9.48;5.87;;;;;;;;;;4375789;32;20070;-73
2021/08/21 08:27:00;;;;;;;11.93;6.03;;;;;;;;;;4361918;32;20081;-74
2021/08/21 08:29:27;;;;;;;11.88;5.60;;;;;;;;;;4375746;32;20090;-72
2021/08/21 08:31:53;;;;;;;14.98;5.72;;;;;;;;;;4361935;32;20143;-74
2021/08/21 08:34:20;;;;;;;12.48;5.53;;;;;;;;;;4361898;32;20078;-73
2021/08/21 08:36:46;;;;;;;12.55;5.35;;;;;;;;;;4375401;32;20082;-73
2021/08/21 08:39:13;;;;;;;11.23;5.65;;;;;;;;;;4361842;32;20470;-73
2021/08/21 08:41:42;;;;;;;10.43;5.57;;;;;;;;;;4375436;32;20707;-73
2021/08/21 08:44:11;;;;;;;12.48;6.28;;;;;;;;;;4363643;32;20080;-73
2021/08/21 08:46:38;;;;;;;11.32;5.75;;;;;;;;;;4378777;32;20085;-73
2021/08/21 08:49:05;;;;;;;11.02;5.85;;;;;;;;;;4352035;32;20151;-73
2021/08/21 08:51:33;;;;;;;15.77;6.20;;;;;;;;;;4352674;32;20085;-72
2021/08/21 08:53:59;;;;;;;11.73;5.62;;;;;;;;;;4364652;32;20090;-72
2021/08/21 08:56:26;;;;;;;10.07;5.07;;;;;;;;;;4364606;32;20089;-72
2021/08/21 08:58:52;;;;;;;12.27;5.97;;;;;;;;;;4364818;32;20078;-73
2021/08/21 09:01:20;;;;;;;11.45;6.45;;;;;;;;;;4352365;32;20075;-73
2021/08/21 09:03:47;;;;;;;10.95;5.53;;;;;;;;;;4364474;32;20150;-73
2021/08/21 09:06:13;;;;;;;10.38;4.87;;;;;;;;;;4364572;32;20085;-73
2021/08/21 09:08:41;;;;;;;12.25;5.60;;;;;;;;;;4352268;32;20074;-72
2021/08/21 09:11:22;;;;;;;10.27;5.43;;;;;;;;;;4364903;32;20125;-73
2021/08/21 09:13:49;;;;;;;12.82;5.78;;;;;;;;;;4352481;32;20086;-72
2021/08/21 09:16:26;;;;;;;8.98;5.62;;;;;;;;;;4339635;32;20145;-72
2021/08/21 09:19:04;;;;;;;10.70;5.22;;;;;;;;;;4364170;32;20077;-73
2021/08/21 09:21:30;;;;;;;9.63;5.50;;;;;;;;;;4351837;32;20073;-73
2021/08/21 09:23:57;;;;;;;8.65;5.07;;;;;;;;;;4351861;32;20082;-74
2021/08/21 09:26:36;;;;;;;11.20;5.60;;;;;;;;;;4364161;32;20089;-72
2021/08/21 09:29:03;;;;;;;7.75;4.95;;;;;;;;;;4364569;32;20073;-73
2021/08/21 09:31:31;;;;;;;11.80;5.70;;;;;;;;;;4351901;32;20082;-72
2021/08/21 09:34:04;;;;;;;10.02;6.20;;;;;;;;;;4351694;32;20069;-72
2021/08/21 09:36:41;;;;;;;10.95;5.90;;;;;;;;;;4351639;32;20070;-72
2021/08/21 09:39:08;;;;;;;15.00;6.00;;;;;;;;;;4364503;32;20078;-73
2021/08/21 09:41:54;;;;;;;9.25;5.65;;;;;;;;;;4351732;32;20146;-72
2021/08/21 09:44:40;;;;;;;8.02;5.75;;;;;;;;;;4363431;32;20510;-73
2021/08/21 09:47:26;;;;;;;11.65;6.15;;;;;;;;;;4365347;32;20590;-73
2021/08/21 09:50:16;;;;;;;9.70;5.87;;;;;;;;;;4352652;32;20066;-73
2021/08/21 09:52:43;;;;;;;13.65;5.87;;;;;;;;;;4351446;32;20078;-72
2021/08/21 09:55:14;;;;;;;10.18;5.75;;;;;;;;;;4377570;32;20070;-73
2021/08/21 09:57:41;;;;;;;10.82;6.45;;;;;;;;;;4352101;32;20156;-73
2021/08/21 10:00:08;;;;;;;9.20;5.45;;;;;;;;;;4364222;32;20088;-72
2021/08/21 10:02:35;;;;;;;10.23;6.20;;;;;;;;;;4351235;32;20112;-72
2021/08/21 10:05:01;;;;;;;10.30;5.25;;;;;;;;;;4363631;32;20078;-73
2021/08/21 10:07:41;;;;;;;9.23;4.97;;;;;;;;;;4363591;32;20129;-72
2021/08/21 10:10:09;;;;;;;11.27;5.50;;;;;;;;;;4363690;32;20154;-73
2021/08/21 10:12:37;;;;;;;8.80;4.68;;;;;;;;;;4351531;32;20515;-73
2021/08/21 10:15:04;;;;;;;13.98;5.90;;;;;;;;;;4350917;32;20072;-72
2021/08/21 10:17:31;;;;;;;10.73;5.68;;;;;;;;;;4362846;32;20612;-73
2021/08/21 10:19:57;;;;;;;8.95;5.72;;;;;;;;;;4363807;32;20062;-73
2021/08/21 10:22:30;;;;;;;10.60;5.35;;;;;;;;;;4363434;32;20106;-73
2021/08/21 10:25:05;;;;;;;9.35;5.65;;;;;;;;;;4351041;32;20074;-73
2021/08/21 10:27:46;;;;;;;12.45;5.80;;;;;;;;;;4363293;32;20497;-73
2021/08/21 10:30:34;;;;;;;10.80;5.57;;;;;;;;;;4351040;32;20517;-72
2021/08/21 10:33:02;;;;;;;9.77;5.70;;;;;;;;;;4352814;32;20448;-72
2021/08/21 10:35:49;;;;;;;8.18;5.22;;;;;;;;;;4351088;32;20085;-71
2021/08/21 10:38:35;;;;;;;9.00;5.07;;;;;;;;;;4362819;32;20077;-73
2021/08/21 10:41:10;;;;;;;9.82;5.22;;;;;;;;;;4375331;32;20062;-74
2021/08/21 10:43:44;;;;;;;;;;;;;;;;;;4363259;32;20152;-71
2021/08/21 10:46:11;;;;;;;10.80;5.95;;;;;;;;;;4377131;32;19962;-72
2021/08/21 10:48:37;;;;;;;8.07;5.00;;;;;;;;;;4338668;32;20157;-72
2021/08/21 10:51:04;;;;;;;8.73;5.05;;;;;;;;;;4375663;32;20066;-72
2021/08/21 10:53:32;;;;;;;11.35;5.50;;;;;;;;;;4350686;32;20081;-72
2021/08/21 10:56:00;;;;;;;10.43;6.05;;;;;;;;;;4350029;32;20480;-72
2021/08/21 10:58:30;;;;;;;8.45;5.35;;;;;;;;;;4350639;32;20090;-71
2021/08/21 11:01:01;;;;;;;10.52;5.07;;;;;;;;;;4363170;32;20073;-72
2021/08/21 11:03:30;;;;;;;7.90;5.03;;;;;;;;;;4363526;32;20444;-73
2021/08/21 11:06:10;;;;;;;9.68;5.65;;;;;;;;;;4362528;32;20078;-71
2021/08/21 11:08:39;;;;;;;8.45;4.97;;;;;;;;;;4362536;32;20515;-71
2021/08/21 11:11:15;;;;;;;8.88;5.00;;;;;;;;;;4376304;32;20592;-72
2021/08/21 11:14:00;;;;;;;9.93;5.37;;;;;;;;;;4362935;32;20085;-73
2021/08/21 11:19:28;;;;;;;10.38;4.87;;;;;;;;;;4362722;32;20070;-72
2021/08/21 11:22:20;;;;;;;13.65;5.72;;;;;;;;;;4374914;32;20080;-73
2021/08/21 11:24:53;;;;;;;12.55;5.32;;;;;;;;;;4362839;32;20219;-73
2021/08/21 11:27:23;;;;;;;8.10;5.40;;;;;;;;;;4362947;32;20078;-72
2021/08/21 11:30:12;;;;;;;10.65;6.15;;;;;;;;;;4376823;32;20151;-71
2021/08/21 11:32:44;;;;;;;9.98;5.65;;;;;;;;;;4374672;32;20476;-72
2021/08/21 11:35:30;;;;;;;9.85;5.93;;;;;;;;;;4362749;32;20085;-72
2021/08/21 11:37:58;;;;;;;;;;;;;;;;;;4362459;32;20086;-72
2021/08/21 11:40:45;;;;;;;10.00;5.60;;;;;;;;;;4362514;32;19962;-73
2021/08/21 11:43:16;;;;;;;12.25;5.50;;;;;;;;;;4362480;32;20094;-72
2021/08/21 11:45:43;;;;;;;9.05;5.18;;;;;;;;;;4362758;32;20547;-72
2021/08/21 11:48:10;;;;;;;10.90;5.97;;;;;;;;;;4350058;32;20148;-73
2021/08/21 11:50:37;;;;;;;12.52;5.68;;;;;;;;;;4349661;32;20079;-73
2021/08/21 11:53:05;;;;;;;9.90;5.28;;;;;;;;;;4362099;32;20070;-73
2021/08/21 11:55:34;;;;;;;9.43;4.78;;;;;;;;;;4362979;32;20093;-73
2021/08/21 11:58:01;;;;;;;8.85;5.25;;;;;;;;;;4350243;32;20073;-72
2021/08/21 12:00:29;;;;;;;9.25;4.32;;;;;;;;;;4350520;32;20521;-73
2021/08/21 12:03:02;;;;;;;10.27;5.30;;;;;;;;;;4362607;32;20085;-72
2021/08/21 12:05:35;;;;;;;8.13;5.00;;;;;;;;;;4362599;32;20078;-72
2021/08/21 12:08:24;;;;;;;11.35;5.53;;;;;;;;;;4362175;32;20078;-72
2021/08/21 12:10:56;;;;;;;11.85;5.32;;;;;;;;;;4349916;32;20116;-74
2021/08/21 12:13:31;;;;;;;9.05;5.43;;;;;;;;;;4349399;32;20442;-73
2021/08/21 12:15:59;;;;;;;;;;;;;;;;;;4362702;32;20077;-71
2021/08/21 12:18:26;;;;;;;11.35;5.68;;;;;;;;;;4374924;32;20059;-74
2021/08/21 12:20:53;;;;;;;8.73;4.75;;;;;;;;;;4365510;32;20078;-72
2021/08/21 12:23:19;;;;;;;10.43;5.25;;;;;;;;;;4365145;32;20086;-73
2021/08/21 12:25:51;;;;;;;8.95;4.43;;;;;;;;;;4364956;32;20089;-72
2021/08/21 12:28:19;;;;;;;12.25;5.90;;;;;;;;;;4365038;32;20066;-73
2021/08/21 12:31:01;;;;;;;12.93;5.87;;;;;;;;;;4364926;32;20077;-72
2021/08/21 12:33:29;;;;;;;11.27;6.28;;;;;;;;;;4365030;32;20063;-72
2021/08/21 12:35:55;;;;;;;10.43;5.90;;;;;;;;;;4378365;32;20182;-72
2021/08/21 12:38:22;;;;;;;10.63;5.53;;;;;;;;;;4364692;32;20511;-73
2021/08/21 12:41:08;;;;;;;14.20;6.00;;;;;;;;;;4365089;32;20496;-73
2021/08/21 12:43:35;;;;;;;13.65;6.37;;;;;;;;;;4364537;32;20094;-73
2021/08/21 12:46:02;;;;;;;11.35;5.55;;;;;;;;;;4378672;32;20086;-73
2021/08/21 12:48:28;;;;;;;15.05;5.93;;;;;;;;;;4364896;32;20098;-72
2021/08/21 12:50:55;;;;;;;10.52;6.05;;;;;;;;;;4364866;32;20074;-72
2021/08/21 12:53:24;;;;;;;11.65;6.18;;;;;;;;;;4364803;32;20078;-73
2021/08/21 12:56:09;;;;;;;10.00;5.10;;;;;;;;;;4364381;32;20516;-73
2021/08/21 12:58:36;;;;;;;12.68;6.18;;;;;;;;;;4366086;32;20103;-72
2021/08/21 13:01:07;;;;;;;11.70;5.90;;;;;;;;;;4364627;32;20069;-73
2021/08/21 13:03:34;;;;;;;10.43;5.37;;;;;;;;;;4351906;32;20098;-74
2021/08/21 13:06:01;;;;;;;13.32;5.60;;;;;;;;;;4364368;32;20090;-73
2021/08/21 13:08:39;;;;;;;12.77;5.68;;;;;;;;;;4364389;32;20534;-73
2021/08/21 13:11:06;;;;;;;10.48;5.53;;;;;;;;;;4352185;32;20500;-72
2021/08/21 13:13:33;;;;;;;11.23;5.68;;;;;;;;;;4364267;32;20458;-73
2021/08/21 13:16:04;;;;;;;11.45;5.82;;;;;;;;;;4364645;32;20089;-73
2021/08/21 13:18:31;;;;;;;9.00;5.03;;;;;;;;;;4364391;32;20074;-73
2021/08/21 13:20:57;;;;;;;11.38;5.55;;;;;;;;;;4378266;32;20149;-73
2021/08/21 13:23:24;;;;;;;10.00;5.00;;;;;;;;;;4365061;32;20078;-73
2021/08/21 13:25:51;;;;;;;10.20;5.60;;;;;;;;;;4351956;32;20485;-73
2021/08/21 13:28:19;;;;;;;13.35;5.35;;;;;;;;;;4378208;32;20530;-73
2021/08/21 13:30:47;;;;;;;10.23;4.97;;;;;;;;;;4363903;32;20080;-72
2021/08/21 13:33:14;;;;;;;9.27;5.35;;;;;;;;;;4351647;32;20085;-73
2021/08/21 13:35:40;;;;;;;8.07;4.57;;;;;;;;;;4364002;32;20081;-73
2021/08/21 13:38:09;;;;;;;10.60;5.15;;;;;;;;;;4351851;32;20071;-72
2021/08/21 13:40:35;;;;;;;8.07;4.43;;;;;;;;;;4364299;32;20078;-72
2021/08/21 13:43:02;;;;;;;9.10;4.97;;;;;;;;;;4351862;32;20086;-72
2021/08/21 13:45:28;;;;;;;9.35;5.50;;;;;;;;;;4363992;32;20100;-73
2021/08/21 13:47:55;;;;;;;8.70;5.10;;;;;;;;;;4363771;32;20098;-73
2021/08/21 13:50:21;;;;;;;11.02;4.87;;;;;;;;;;4364250;32;20161;-73
2021/08/21 13:52:48;;;;;;;12.40;5.32;;;;;;;;;;4376265;32;20074;-72
2021/08/21 13:55:14;;;;;;;10.18;4.62;;;;;;;;;;4364097;32;20081;-74
2021/08/21 13:57:41;;;;;;;7.93;4.47;;;;;;;;;;4363651;32;20093;-73
2021/08/21 14:00:08;;;;;;;14.25;5.03;;;;;;;;;;4364168;32;20086;-72
2021/08/21 14:02:34;;;;;;;14.80;4.82;;;;;;;;;;4364054;32;20162;-73
2021/08/21 14:05:01;;;;;;;10.77;5.00;;;;;;;;;;4363959;32;20167;-72
2021/08/21 14:07:28;;;;;;;10.50;5.15;;;;;;;;;;4351638;32;20460;-72
2021/08/21 14:09:54;;;;;;;8.80;4.50;;;;;;;;;;4363947;32;20066;-72
2021/08/21 14:12:22;;;;;;;11.80;5.20;;;;;;;;;;4363303;32;20157;-73
2021/08/21 14:14:52;;;;;;;10.45;5.55;;;;;;;;;;4351216;32;20062;-71
2021/08/21 14:17:20;;;;;;;9.43;5.20;;;;;;;;;;4376125;32;20438;-73
2021/08/21 14:19:46;;;;;;;8.95;5.45;;;;;;;;;;4338746;32;20073;-72
2021/08/21 14:22:14;;;;;;;9.02;5.22;;;;;;;;;;4363644;32;20070;-72
2021/08/21 14:24:40;;;;;;;8.60;4.57;;;;;;;;;;4363687;32;20093;-72
2021/08/21 14:27:06;;;;;;;9.02;4.40;;;;;;;;;;4351035;32;20078;-73
2021/08/21 14:29:33;;;;;;;9.50;4.45;;;;;;;;;;4377351;32;20076;-73
2021/08/21 14:32:02;;;;;;;11.57;5.10;;;;;;;;;;4377006;32;20074;-73
2021/08/21 14:34:28;;;;;;;10.15;5.00;;;;;;;;;;4363753;32;20085;-73
2021/08/21 14:36:55;;;;;;;14.13;5.32;;;;;;;;;;4362953;32;20509;-72
2021/08/21 14:39:21;;;;;;;9.02;5.47;;;;;;;;;;4362963;32;20070;-73
2021/08/21 14:41:48;;;;;;;8.05;4.45;;;;;;;;;;4362505;32;20084;-74
2021/08/21 14:44:15;;;;;;;8.85;4.78;;;;;;;;;;4375692;32;20532;-72
2021/08/21 14:46:41;;;;;;;9.38;4.62;;;;;;;;;;4350966;32;20070;-72